Time;durP1;ratioP1;P1;durP2;ratioP2;P2;SDS_P1;SDS_P2;PMS_P1;PMS_P2;Temp;Humidity;BMP_temperature;BMP_pressure;BME280_temperature;BME280_humidity;BME280_pressure;Samples;Min_cycle;Max_cycle;Signal;HPM_P1;HPM_P2
2023/06/23 00:00:15;;;;;;;15.63;12.80;;;;;;;23.65;83.38;97302.09;6170028;28;20260;-39
2023/06/23 00:03:17;;;;;;;16.17;12.95;;;;;;;23.53;84.12;97296.56;6165496;28;20220;-40
2023/06/23 00:06:20;;;;;;;14.98;13.10;;;;;;;23.52;83.72;97305.84;6168406;28;20217;-39
2023/06/23 00:09:22;;;;;;;13.60;12.20;;;;;;;23.44;84.29;97321.91;6168205;28;20229;-39
2023/06/23 00:12:24;;;;;;;14.13;12.15;;;;;;;23.39;84.18;97324.84;6170373;28;20221;-40
2023/06/23 00:15:26;;;;;;;15.85;13.10;;;;;;;23.34;85.18;97335.13;6168619;28;20712;-40
2023/06/23 00:18:29;;;;;;;15.80;13.43;;;;;;;23.30;84.99;97345.88;6170389;28;20225;-40
2023/06/23 00:21:31;;;;;;;14.70;13.20;;;;;;;23.22;85.40;97370.41;6166340;28;20228;-39
2023/06/23 00:24:33;;;;;;;18.85;14.18;;;;;;;23.25;85.72;97370.56;6169947;28;20333;-39
2023/06/23 00:27:37;;;;;;;17.50;13.82;;;;;;;23.24;85.50;97365.44;6172894;28;20280;-40
2023/06/23 00:30:39;;;;;;;15.50;13.57;;;;;;;23.16;86.01;97372.53;6173058;28;20233;-40
2023/06/23 00:33:41;;;;;;;16.90;12.35;;;;;;;23.11;86.35;97376.25;6166156;28;20221;-40
2023/06/23 00:36:43;;;;;;;15.73;13.13;;;;;;;23.07;86.22;97386.19;6168335;28;20373;-40
2023/06/23 00:39:46;;;;;;;18.90;14.70;;;;;;;23.03;86.85;97381.72;6167109;28;20298;-40
2023/06/23 00:42:54;;;;;;;16.02;13.82;;;;;;;22.84;87.00;97384.84;6170057;28;20227;-40
2023/06/23 00:46:16;;;;;;;16.75;14.98;;;;;;;22.88;87.43;97407.53;6165273;28;20248;-39
2023/06/23 00:49:19;;;;;;;20.52;15.75;;;;;;;22.80;87.62;97444.47;6166448;28;20249;-40
2023/06/23 00:52:21;;;;;;;17.05;15.25;;;;;;;22.76;87.51;97454.41;6169882;28;20247;-39
2023/06/23 00:55:27;;;;;;;19.52;15.25;;;;;;;22.82;85.84;97439.50;6160442;28;20304;-40
2023/06/23 00:58:34;;;;;;;18.33;14.07;;;;;;;22.84;86.37;97448.13;6170316;28;20237;-39
2023/06/23 01:01:36;;;;;;;19.58;14.75;;;;;;;22.82;87.42;97444.94;6164813;28;20236;-39
2023/06/23 01:04:39;;;;;;;17.60;11.98;;;;;;;22.87;82.19;97443.97;6168259;28;20376;-40
2023/06/23 01:07:52;;;;;;;13.88;10.38;;;;;;;23.55;74.73;97452.03;6168573;28;20811;-40
2023/06/23 01:11:04;;;;;;;15.73;9.15;;;;;;;23.92;72.00;97461.19;6151286;28;20240;-39
2023/06/23 01:14:22;;;;;;;15.30;9.88;;;;;;;23.94;73.88;97470.63;6163405;28;20328;-40
2023/06/23 01:17:35;;;;;;;14.10;10.82;;;;;;;23.78;75.59;97476.97;6165476;28;21808;-39
2023/06/23 01:20:41;;;;;;;15.77;10.45;;;;;;;23.65;76.95;97484.31;6168286;28;20647;-39
2023/06/23 01:24:03;;;;;;;12.95;10.48;;;;;;;23.43;78.78;97488.09;6163015;28;20288;-40
2023/06/23 01:27:41;;;;;;;14.48;10.50;;;;;;;23.21;78.58;97489.19;6162963;28;20309;-39
2023/06/23 01:30:53;;;;;;;12.68;7.05;;;;;;;23.52;69.42;97496.19;6168970;28;20233;-39
2023/06/23 01:34:01;;;;;;;8.60;6.45;;;;;;;23.51;70.11;97467.41;6167372;28;20245;-40
2023/06/23 01:37:09;;;;;;;15.60;6.18;;;;;;;24.02;62.08;97484.47;6168363;28;20245;-40
2023/06/23 01:40:15;;;;;;;13.48;5.78;;;;;;;24.12;62.39;97473.94;6150622;28;20778;-40
2023/06/23 01:43:29;;;;;;;10.07;5.15;;;;;;;24.34;59.31;97500.00;6163415;28;20328;-39
2023/06/23 01:46:35;;;;;;;19.63;5.40;;;;;;;24.31;57.92;97497.16;6166771;28;20227;-39
2023/06/23 01:49:38;;;;;;;12.10;5.40;;;;;;;24.41;58.10;97516.63;6167715;28;20229;-40
2023/06/23 01:52:41;;;;;;;16.50;5.03;;;;;;;24.27;57.79;97526.19;6165413;28;20243;-39
2023/06/23 01:55:43;;;;;;;10.38;4.45;;;;;;;24.33;56.22;97533.78;6167505;28;20233;-39
2023/06/23 01:58:48;;;;;;;13.07;4.50;;;;;;;24.53;55.51;97547.72;6166586;28;20767;-40
2023/06/23 02:01:52;;;;;;;14.82;4.82;;;;;;;24.36;57.78;97543.25;6166719;28;20328;-40
2023/06/23 02:04:57;;;;;;;14.07;4.85;;;;;;;24.32;55.69;97545.03;6166691;28;20252;-39
2023/06/23 02:08:01;;;;;;;11.20;4.47;;;;;;;24.23;55.97;97544.31;6166482;28;20236;-40
2023/06/23 02:11:05;;;;;;;12.43;4.57;;;;;;;24.42;55.24;97561.78;6160458;28;20320;-40
2023/06/23 02:14:09;;;;;;;14.10;4.93;;;;;;;24.24;57.01;97567.69;6148528;28;20237;-39
2023/06/23 02:17:13;;;;;;;15.52;5.05;;;;;;;24.37;55.63;97567.41;6156003;28;20626;-39
2023/06/23 02:20:17;;;;;;;12.30;4.35;;;;;;;24.19;57.29;97591.28;6155110;28;20241;-40
2023/06/23 02:23:20;;;;;;;9.23;4.13;;;;;;;24.20;56.71;97597.50;6170102;28;20245;-39
2023/06/23 02:26:25;;;;;;;12.07;4.20;;;;;;;24.04;58.54;97604.66;6170381;28;20237;-40
2023/06/23 02:29:28;;;;;;;15.85;4.80;;;;;;;23.91;58.14;97574.66;6152998;28;20715;-39
2023/06/23 02:32:30;;;;;;;6.05;3.83;;;;;;;23.75;59.27;97587.28;6152706;28;20240;-39
2023/06/23 02:35:33;;;;;;;7.60;3.72;;;;;;;23.63;59.93;97592.56;6169946;28;20292;-39
2023/06/23 02:38:37;;;;;;;8.18;3.38;;;;;;;23.54;59.31;97583.66;6168536;28;20233;-40
2023/06/23 02:41:42;;;;;;;9.40;4.00;;;;;;;23.70;58.41;97590.19;6171183;28;20248;-39
2023/06/23 02:45:22;;;;;;;8.90;4.13;;;;;;;23.65;58.27;97591.16;6153041;28;20384;-39
2023/06/23 02:48:33;;;;;;;7.68;3.80;;;;;;;23.53;58.99;97591.03;6149260;28;20232;-39
2023/06/23 02:51:38;;;;;;;13.18;4.53;;;;;;;23.66;58.64;97590.03;6171223;28;20249;-39
2023/06/23 02:54:46;;;;;;;12.27;4.20;;;;;;;23.78;58.29;97594.75;6163860;28;20270;-39
2023/06/23 02:57:52;;;;;;;9.85;4.07;;;;;;;23.58;58.93;97595.47;6170584;28;20241;-39
2023/06/23 03:01:01;;;;;;;8.77;3.97;;;;;;;23.03;60.13;97539.31;6169421;28;20225;-39
2023/06/23 03:04:04;;;;;;;8.57;3.70;;;;;;;23.36;60.46;97585.69;6171249;28;20237;-39
2023/06/23 03:07:06;;;;;;;9.30;4.00;;;;;;;23.52;59.05;97581.28;6170117;28;20655;-40
2023/06/23 03:10:08;;;;;;;8.25;4.00;;;;;;;23.29;60.43;97585.41;6172174;28;20324;-39
2023/06/23 03:13:13;;;;;;;10.65;4.05;;;;;;;23.10;61.84;97573.03;6149705;28;20234;-39
2023/06/23 03:16:46;;;;;;;10.85;4.30;;;;;;;23.06;61.34;97580.22;6167950;28;20228;-39
2023/06/23 03:19:56;;;;;;;9.07;4.05;;;;;;;23.01;61.41;97595.91;6169241;28;20238;-39
2023/06/23 03:23:03;;;;;;;13.43;3.78;;;;;;;23.01;60.11;97579.63;6145669;28;20597;-39
2023/06/23 03:26:09;;;;;;;10.23;3.88;;;;;;;23.26;59.83;97616.75;6169587;28;20237;-39
2023/06/23 03:29:12;;;;;;;8.32;3.78;;;;;;;23.07;60.59;97609.00;6169711;28;20233;-40
2023/06/23 03:32:22;;;;;;;9.18;3.40;;;;;;;23.01;60.69;97612.22;6171588;28;20233;-40
2023/06/23 03:35:37;;;;;;;6.95;3.50;;;;;;;22.93;61.58;97613.81;6167875;28;20233;-40
2023/06/23 03:38:46;;;;;;;5.10;3.25;;;;;;;22.87;61.81;97625.97;6165903;28;20633;-39
2023/06/23 03:41:49;;;;;;;10.85;3.65;;;;;;;22.88;61.38;97632.97;6174411;28;20695;-39
2023/06/23 03:44:54;;;;;;;7.63;3.60;;;;;;;22.75;62.75;97626.59;6168508;28;20323;-39
2023/06/23 03:48:03;;;;;;;9.13;3.35;;;;;;;22.54;64.13;97614.81;6151261;28;20230;-39
2023/06/23 03:51:10;;;;;;;7.35;4.00;;;;;;;22.55;64.65;97630.78;6165458;28;20237;-40
2023/06/23 03:54:15;;;;;;;7.95;3.13;;;;;;;22.55;62.58;97616.41;6172216;28;20230;-39
2023/06/23 03:57:22;;;;;;;7.65;3.65;;;;;;;22.53;63.43;97633.03;6172437;28;20320;-39
2023/06/23 04:00:24;;;;;;;5.30;2.70;;;;;;;22.51;63.03;97634.47;6168859;28;20229;-39
2023/06/23 04:03:30;;;;;;;8.00;3.13;;;;;;;22.42;63.70;97628.25;6164100;28;20229;-40
2023/06/23 04:06:35;;;;;;;7.80;3.55;;;;;;;22.45;62.26;97617.53;6168610;28;20233;-39
2023/06/23 04:09:41;;;;;;;9.40;3.20;;;;;;;22.57;61.78;97612.28;6157151;28;20330;-39
2023/06/23 04:12:45;;;;;;;7.15;2.95;;;;;;;22.59;61.70;97592.94;6165991;28;20955;-39
2023/06/23 04:15:48;;;;;;;8.17;3.50;;;;;;;22.62;61.15;97614.81;6166516;28;20224;-39
2023/06/23 04:18:53;;;;;;;8.50;3.30;;;;;;;22.75;60.33;97621.19;6165675;28;20777;-39
2023/06/23 04:21:57;;;;;;;6.47;3.50;;;;;;;22.55;63.36;97627.28;6168722;28;20259;-39
2023/06/23 04:25:01;;;;;;;7.10;3.00;;;;;;;22.37;65.16;97624.59;6161989;28;20229;-39
2023/06/23 04:28:05;;;;;;;5.73;2.70;;;;;;;22.24;65.67;97641.81;6168768;28;20706;-39
2023/06/23 04:31:09;;;;;;;7.93;3.23;;;;;;;22.08;66.54;97643.38;6168679;28;20246;-39
2023/06/23 04:34:12;;;;;;;5.13;2.67;;;;;;;22.02;66.74;97644.63;6166132;28;20234;-40
2023/06/23 04:37:41;;;;;;;7.73;3.00;;;;;;;21.84;67.64;97616.69;6168718;28;20249;-40
2023/06/23 04:40:51;;;;;;;12.52;3.13;;;;;;;21.81;68.14;97642.50;6168255;28;20236;-39
2023/06/23 04:43:56;;;;;;;8.47;3.20;;;;;;;21.76;67.01;97637.25;6170436;28;20324;-39
2023/06/23 04:47:01;;;;;;;7.83;3.33;;;;;;;21.80;67.78;97646.34;6169055;28;20241;-40
2023/06/23 04:50:11;;;;;;;7.93;3.30;;;;;;;22.23;63.56;97658.44;6164180;28;20248;-40
2023/06/23 04:53:18;;;;;;;9.20;3.60;;;;;;;22.02;66.21;97663.63;6167216;28;20230;-39
2023/06/23 04:56:23;;;;;;;8.00;3.27;;;;;;;21.96;66.01;97654.84;6171034;28;20724;-39
2023/06/23 04:59:27;;;;;;;6.97;3.47;;;;;;;21.89;66.65;97658.03;6174983;28;20368;-39
2023/06/23 05:02:33;;;;;;;7.90;3.37;;;;;;;21.85;67.40;97648.91;6165158;28;20214;-39
2023/06/23 05:05:36;;;;;;;6.23;3.10;;;;;;;21.78;67.79;97647.78;6163996;28;20615;-39
2023/06/23 05:08:41;;;;;;;7.30;3.50;;;;;;;21.87;66.77;97671.09;6168969;28;20230;-39
2023/06/23 05:11:48;;;;;;;8.10;3.50;;;;;;;22.03;66.05;97673.38;6147830;28;20607;-39
2023/06/23 05:14:52;;;;;;;10.10;3.40;;;;;;;21.99;66.27;97678.63;6164346;28;20662;-39
2023/06/23 05:17:57;;;;;;;9.57;3.67;;;;;;;22.04;65.76;97678.47;6166332;28;20242;-39
2023/06/23 05:21:02;;;;;;;7.83;3.10;;;;;;;22.03;65.90;97697.78;6168950;28;20233;-39
2023/06/23 05:24:08;;;;;;;6.33;3.20;;;;;;;22.06;66.09;97689.78;6167092;28;20706;-39
2023/06/23 05:27:11;;;;;;;7.67;3.50;;;;;;;22.18;65.69;97700.09;6168332;28;20221;-39
2023/06/23 05:30:17;;;;;;;8.67;3.10;;;;;;;22.21;65.55;97695.91;6131673;28;20707;-39
2023/06/23 05:33:20;;;;;;;10.27;3.33;;;;;;;22.26;65.92;97696.56;6167525;28;20221;-39
2023/06/23 05:36:23;;;;;;;5.83;3.50;;;;;;;22.24;65.74;97700.72;6171820;28;20238;-39
2023/06/23 05:39:28;;;;;;;10.07;3.40;;;;;;;22.28;65.58;97688.91;6154128;28;20244;-39
2023/06/23 05:42:32;;;;;;;7.10;3.10;;;;;;;22.32;64.99;97692.59;6162328;28;20685;-39
2023/06/23 05:45:35;;;;;;;7.00;3.50;;;;;;;22.36;65.34;97699.00;6163272;28;20313;-38
2023/06/23 05:48:46;;;;;;;9.30;3.47;;;;;;;22.48;64.75;97692.13;6165882;28;20229;-40
2023/06/23 05:51:55;;;;;;;9.20;3.27;;;;;;;22.30;64.97;97680.44;6162377;28;20222;-39
2023/06/23 05:54:59;;;;;;;8.73;3.67;;;;;;;22.39;64.81;97694.84;6166561;28;20263;-39
2023/06/23 05:58:06;;;;;;;9.60;3.30;;;;;;;22.18;65.59;97678.38;6162586;28;20229;-39
2023/06/23 06:01:14;;;;;;;7.03;3.37;;;;;;;22.34;65.67;97697.69;6166636;28;20232;-39
2023/06/23 06:04:19;;;;;;;6.63;3.10;;;;;;;22.35;65.59;97686.53;6156724;28;20237;-39
2023/06/23 06:07:22;;;;;;;10.73;3.03;;;;;;;22.38;65.85;97694.03;6165631;28;20858;-39
2023/06/23 06:10:26;;;;;;;6.07;3.00;;;;;;;22.46;64.98;97681.56;6163716;28;20613;-39
2023/06/23 06:13:37;;;;;;;5.90;2.80;;;;;;;22.46;66.65;97697.84;6167530;28;20877;-39
2023/06/23 06:16:41;;;;;;;10.97;3.00;;;;;;;22.45;65.67;97693.56;6144803;28;20726;-39
2023/06/23 06:19:45;;;;;;;7.32;3.03;;;;;;;22.54;64.65;97686.22;6149130;28;20277;-39
2023/06/23 06:22:50;;;;;;;5.97;3.17;;;;;;;22.60;65.25;97668.63;6169052;28;20601;-40
2023/06/23 06:26:00;;;;;;;5.77;2.90;;;;;;;22.71;65.30;97693.56;6163735;28;20644;-39
2023/06/23 06:29:06;;;;;;;7.90;3.20;;;;;;;22.75;65.40;97694.50;6168450;28;20263;-39
2023/06/23 06:32:09;;;;;;;6.55;2.88;;;;;;;22.74;65.23;97701.06;6168126;28;20238;-39
2023/06/23 06:35:15;;;;;;;5.90;2.67;;;;;;;22.75;65.48;97699.94;6166162;28;20239;-39
2023/06/23 06:50:39;;;;;;;7.70;2.80;;;;;;;23.39;59.68;97707.38;6288413;27;20575;-43
2023/06/23 06:53:41;;;;;;;4.32;2.38;;;;;;;23.27;60.52;97723.56;6211830;28;20317;-43
2023/06/23 06:56:44;;;;;;;4.97;2.70;;;;;;;23.27;59.92;97721.66;6206994;28;20243;-44
2023/06/23 06:59:46;;;;;;;3.38;2.40;;;;;;;23.30;60.78;97728.34;6224574;28;20236;-43
2023/06/23 07:02:50;;;;;;;3.35;2.33;;;;;;;23.35;60.60;97726.28;6225403;28;20230;-43
2023/06/23 07:05:52;;;;;;;4.68;2.38;;;;;;;23.27;58.69;97697.19;6224501;28;20701;-44
2023/06/23 07:08:54;;;;;;;2.92;2.00;;;;;;;23.37;59.71;97734.09;6222575;28;20232;-44
2023/06/23 07:11:58;;;;;;;7.18;2.35;;;;;;;23.25;61.47;97736.66;6223202;28;20610;-43
2023/06/23 07:15:01;;;;;;;4.60;2.15;;;;;;;23.34;60.03;97749.13;6247909;28;20246;-44
2023/06/23 07:18:03;;;;;;;4.43;2.05;;;;;;;23.42;57.43;97755.66;6248083;28;20713;-43
2023/06/23 07:21:05;;;;;;;5.18;2.00;;;;;;;23.50;56.94;97771.19;6249135;28;20223;-43
2023/06/23 07:24:07;;;;;;;5.20;2.10;;;;;;;23.55;54.65;97762.84;6248143;28;20306;-42
2023/06/23 07:27:09;;;;;;;3.45;1.73;;;;;;;23.38;56.89;97765.59;6246766;28;20216;-42
2023/06/23 07:30:12;;;;;;;5.82;1.60;;;;;;;23.43;57.97;97752.63;6248600;28;20215;-44
2023/06/23 07:33:14;;;;;;;4.60;2.10;;;;;;;23.33;58.72;97752.16;6249697;28;20712;-43
2023/06/23 07:36:17;;;;;;;3.90;1.65;;;;;;;23.27;59.16;97759.69;6249230;28;20227;-43
2023/06/23 07:39:19;;;;;;;3.28;1.98;;;;;;;23.52;56.45;97765.41;6249094;28;20322;-43
2023/06/23 07:42:21;;;;;;;3.55;1.25;;;;;;;23.58;54.68;97772.25;6243393;28;20235;-43
2023/06/23 07:45:23;;;;;;;3.15;1.67;;;;;;;23.67;56.10;97773.06;6245609;28;20223;-43
2023/06/23 07:48:25;;;;;;;2.60;1.52;;;;;;;24.02;53.25;97781.09;6248347;28;20242;-43
2023/06/23 07:51:28;;;;;;;3.97;1.70;;;;;;;23.93;53.34;97767.53;6229158;28;20601;-44
2023/06/23 07:54:30;;;;;;;2.58;1.73;;;;;;;23.88;53.18;97773.94;6231678;28;20235;-44
2023/06/23 07:57:33;;;;;;;1.88;1.30;;;;;;;23.82;52.58;97753.47;6231687;28;20366;-43
2023/06/23 08:00:35;;;;;;;2.95;1.20;;;;;;;24.05;52.05;97794.06;6228134;28;20238;-42
2023/06/23 08:03:38;;;;;;;3.03;1.65;;;;;;;24.00;56.12;97786.09;6232460;28;20318;-43
2023/06/23 08:06:40;;;;;;;2.70;1.48;;;;;;;24.17;53.74;97811.28;6231953;28;20231;-44
2023/06/23 08:09:44;;;;;;;4.75;1.63;;;;;;;24.21;51.98;97803.25;6235914;28;20451;-42
2023/06/23 08:12:46;;;;;;;24.85;2.75;;;;;;;24.17;55.18;97810.47;6235971;28;20228;-44
2023/06/23 08:15:48;;;;;;;7.47;1.60;;;;;;;24.24;52.97;97799.91;6229594;28;20728;-43
2023/06/23 08:18:51;;;;;;;1.83;1.58;;;;;;;24.17;54.47;97799.59;6231524;28;20230;-43
2023/06/23 08:21:53;;;;;;;4.85;1.83;;;;;;;23.99;55.44;97814.41;6226601;28;20314;-43
2023/06/23 08:24:55;;;;;;;4.13;1.45;;;;;;;24.01;54.27;97804.78;6226650;28;20232;-43
2023/06/23 08:27:57;;;;;;;3.92;1.60;;;;;;;23.54;54.69;97752.28;6229924;28;20234;-43
2023/06/23 08:30:59;;;;;;;4.85;1.50;;;;;;;23.98;53.38;97805.44;6231711;28;20281;-43
2023/06/23 08:34:01;;;;;;;3.35;1.88;;;;;;;23.92;54.33;97804.03;6230441;28;20583;-43
2023/06/23 08:37:04;;;;;;;2.00;1.48;;;;;;;23.60;56.54;97817.06;6229911;28;20231;-44
2023/06/23 08:40:07;;;;;;;3.33;1.65;;;;;;;23.83;53.67;97795.88;6231007;28;20645;-45
2023/06/23 08:43:10;;;;;;;4.13;1.33;;;;;;;23.81;55.08;97797.34;6229979;28;20222;-44
2023/06/23 08:46:17;;;;;;;24.10;2.35;;;;;;;23.90;56.75;97792.69;6228650;28;20224;-45
2023/06/23 08:49:23;;;;;;;2.90;1.50;;;;;;;24.16;53.04;97798.81;6227642;28;20748;-44
2023/06/23 08:52:25;;;;;;;2.85;1.52;;;;;;;24.19;52.79;97779.09;6231611;28;20239;-43
2023/06/23 08:55:28;;;;;;;6.85;1.55;;;;;;;24.41;53.06;97797.09;6229660;28;20385;-44
2023/06/23 08:58:30;;;;;;;2.50;1.58;;;;;;;24.33;53.72;97792.44;6230682;28;20241;-45
2023/06/23 09:01:33;;;;;;;3.25;1.50;;;;;;;24.72;51.03;97804.09;6229714;28;20227;-43
2023/06/23 09:04:36;;;;;;;3.38;1.42;;;;;;;24.80;50.37;97805.97;6226536;28;20232;-43
2023/06/23 09:07:38;;;;;;;4.95;1.60;;;;;;;24.72;50.14;97787.75;6229865;28;20345;-43
2023/06/23 09:10:41;;;;;;;4.63;1.13;;;;;;;24.95;50.86;97801.88;6229853;28;20564;-44
2023/06/23 09:13:45;;;;;;;2.70;1.50;;;;;;;24.81;50.00;97791.22;6229794;28;20289;-44
2023/06/23 09:16:48;;;;;;;2.47;1.35;;;;;;;24.78;50.13;97786.47;6227275;28;20231;-43
2023/06/23 09:19:50;;;;;;;1.80;1.40;;;;;;;24.87;49.41;97808.16;6227818;28;20716;-43
2023/06/23 09:22:55;;;;;;;1.92;1.35;;;;;;;24.77;51.21;97819.47;6228671;28;20665;-43
2023/06/23 09:25:57;;;;;;;3.50;1.13;;;;;;;24.80;50.79;97830.50;6226441;28;20886;-45
2023/06/23 09:29:20;;;;;;;2.33;1.50;;;;;;;24.99;48.03;97818.34;6228805;28;20226;-44
2023/06/23 09:32:29;;;;;;;19.55;1.98;;;;;;;24.81;49.35;97780.31;6226228;28;20231;-45
2023/06/23 09:35:31;;;;;;;3.00;1.13;;;;;;;24.89;51.47;97827.72;6226037;28;20228;-45
2023/06/23 09:38:35;;;;;;;5.78;1.48;;;;;;;24.87;53.68;97811.69;6228901;28;20591;-44
2023/06/23 09:41:37;;;;;;;2.38;1.00;;;;;;;24.85;52.11;97799.53;6227481;28;20600;-44
2023/06/23 09:44:53;;;;;;;0.77;0.77;;;;;;;25.35;48.01;97834.13;6229374;28;20240;-43
2023/06/23 09:47:55;;;;;;;4.35;0.98;;;;;;;25.43;47.56;97844.16;6227257;28;20239;-44
2023/06/23 09:51:01;;;;;;;1.52;0.63;;;;;;;25.28;47.45;97834.66;6229434;28;20242;-45
2023/06/23 09:54:04;;;;;;;6.43;1.08;;;;;;;25.12;49.26;97796.31;6226588;28;20712;-44
2023/06/23 09:57:13;;;;;;;1.10;0.52;;;;;;;25.31;51.08;97828.53;6227300;28;20733;-44
2023/06/23 10:00:16;;;;;;;1.65;0.52;;;;;;;25.26;51.65;97833.38;6227835;28;20232;-48
2023/06/23 10:03:20;;;;;;;1.33;0.80;;;;;;;25.41;47.79;97841.75;6228776;28;20220;-45
2023/06/23 10:06:36;;;;;;;0.90;0.60;;;;;;;25.43;48.62;97841.44;6229055;28;20723;-47
2023/06/23 10:09:51;;;;;;;0.57;0.57;;;;;;;25.26;47.89;97836.91;6225894;28;20632;-46
2023/06/23 10:12:58;;;;;;;2.80;0.60;;;;;;;25.03;49.72;97833.72;6227915;28;20314;-44
2023/06/23 10:16:01;;;;;;;2.10;0.77;;;;;;;25.00;51.12;97793.50;6226555;28;20227;-46
2023/06/23 10:19:04;;;;;;;0.80;0.52;;;;;;;25.23;49.12;97828.63;6225308;28;20312;-46
2023/06/23 10:22:08;;;;;;;0.80;0.50;;;;;;;25.04;50.09;97837.25;6228573;28;20616;-46
2023/06/23 10:25:11;;;;;;;0.65;0.50;;;;;;;25.25;48.67;97835.31;6225046;28;20223;-46
2023/06/23 10:28:17;;;;;;;0.95;0.80;;;;;;;25.58;46.58;97829.88;6227703;28;20276;-44
2023/06/23 10:31:21;;;;;;;2.92;0.70;;;;;;;25.39;49.03;97848.69;6225443;28;20235;-46
2023/06/23 10:34:27;;;;;;;0.85;0.80;;;;;;;25.55;47.80;97822.38;6228592;28;20606;-45
2023/06/23 10:37:30;;;;;;;1.27;0.63;;;;;;;25.54;47.94;97839.88;6228282;28;21035;-44
2023/06/23 10:40:50;;;;;;;0.88;0.80;;;;;;;25.33;48.01;97837.19;6228382;28;20244;-44
2023/06/23 10:43:56;;;;;;;1.98;0.90;;;;;;;25.03;50.49;97838.38;6227979;28;20231;-43
2023/06/23 10:46:58;;;;;;;1.75;0.60;;;;;;;24.96;52.38;97842.41;6227910;28;20358;-44
2023/06/23 10:50:01;;;;;;;1.48;0.60;;;;;;;24.99;52.05;97843.69;6227574;28;20240;-44
2023/06/23 10:53:17;;;;;;;0.70;0.70;;;;;;;25.24;48.39;97839.19;6227188;28;20220;-43
2023/06/23 10:56:52;;;;;;;2.03;0.68;;;;;;;25.22;50.37;97819.63;6225671;28;20231;-43
2023/06/23 11:00:06;;;;;;;0.95;0.60;;;;;;;25.40;48.09;97828.44;6220349;28;20350;-44
2023/06/23 11:03:23;;;;;;;5.93;0.98;;;;;;;25.14;51.04;97815.06;6224694;28;20665;-44
2023/06/23 11:06:34;;;;;;;2.55;0.80;;;;;;;25.17;49.88;97839.72;6225686;28;20227;-42
2023/06/23 11:09:55;;;;;;;1.75;0.63;;;;;;;25.05;50.13;97839.63;6225114;28;20274;-44
2023/06/23 11:12:57;;;;;;;1.85;0.40;;;;;;;24.92;50.98;97819.66;6227788;28;20648;-43
2023/06/23 11:16:01;;;;;;;2.42;0.55;;;;;;;24.86;49.88;97815.56;6225458;28;20653;-44
2023/06/23 11:19:04;;;;;;;1.65;0.50;;;;;;;24.52;52.68;97808.41;6227622;28;20612;-42
2023/06/23 11:22:09;;;;;;;1.70;0.65;;;;;;;24.37;51.17;97806.25;6223000;28;20366;-44
2023/06/23 11:25:23;;;;;;;3.72;0.60;;;;;;;24.15;53.63;97824.44;6228920;28;20246;-45
2023/06/23 11:28:29;;;;;;;2.08;0.60;;;;;;;24.29;51.26;97826.94;6232830;28;20231;-42
2023/06/23 11:31:31;;;;;;;4.78;0.68;;;;;;;24.36;50.49;97821.00;6231830;28;20236;-41
2023/06/23 11:34:54;;;;;;;1.45;0.60;;;;;;;24.31;51.69;97837.50;6232065;28;20269;-44
2023/06/23 11:37:56;;;;;;;1.08;0.50;;;;;;;23.81;51.59;97765.50;6231914;28;20330;-41
2023/06/23 11:40:59;;;;;;;4.18;0.68;;;;;;;24.06;51.88;97842.72;6230837;28;20233;-44
2023/06/23 11:44:02;;;;;;;2.03;0.50;;;;;;;23.38;51.14;97760.94;6231687;28;20223;-44
2023/06/23 11:47:05;;;;;;;0.98;0.57;;;;;;;23.46;52.43;97830.03;6231683;28;20311;-45
2023/06/23 11:50:07;;;;;;;3.00;0.68;;;;;;;23.44;52.95;97854.81;6230627;28;20271;-44
2023/06/23 11:53:10;;;;;;;0.75;0.55;;;;;;;23.19;53.52;97866.50;6230102;28;20314;-46
2023/06/23 11:56:16;;;;;;;1.10;0.50;;;;;;;23.18;52.97;97886.66;6231171;28;20704;-46
2023/06/23 11:59:18;;;;;;;4.97;0.70;;;;;;;23.14;53.31;97926.44;6231123;28;20236;-44
2023/06/23 12:02:20;;;;;;;0.82;0.43;;;;;;;22.73;55.32;97900.44;6230771;28;20228;-43
2023/06/23 12:05:23;;;;;;;1.50;0.60;;;;;;;22.70;56.94;97930.94;6230938;28;20232;-43
2023/06/23 12:08:27;;;;;;;1.95;0.63;;;;;;;22.42;56.04;97908.66;6230952;28;20231;-43
2023/06/23 12:11:32;;;;;;;2.13;0.77;;;;;;;22.75;53.36;97917.22;6231006;28;20234;-45
2023/06/23 12:14:37;;;;;;;1.05;0.70;;;;;;;22.58;53.12;97882.69;6231125;28;20235;-44
2023/06/23 12:17:41;;;;;;;2.27;0.70;;;;;;;22.40;54.65;97884.53;6227568;28;20246;-48
2023/06/23 12:20:47;;;;;;;1.33;0.85;;;;;;;22.26;54.15;97919.09;6229785;28;20232;-45
2023/06/23 12:23:50;;;;;;;3.23;1.40;;;;;;;22.15;52.94;97924.00;6230532;28;20235;-45
2023/06/23 12:26:53;;;;;;;3.27;1.70;;;;;;;22.01;53.93;97944.97;6230892;28;20314;-43
2023/06/23 12:29:55;;;;;;;1.70;1.60;;;;;;;21.97;53.80;97981.16;6231689;28;20314;-42
2023/06/23 12:33:00;;;;;;;2.53;1.53;;;;;;;21.61;55.90;97998.28;6230363;28;20242;-43
2023/06/23 12:36:04;;;;;;;1.67;1.43;;;;;;;21.41;56.13;97987.88;6235384;28;20370;-42
2023/06/23 12:39:07;;;;;;;3.60;2.10;;;;;;;21.49;56.83;97987.97;6229869;28;20220;-42
2023/06/23 12:42:09;;;;;;;7.10;1.77;;;;;;;21.21;58.21;97973.63;6229366;28;20692;-43
2023/06/23 12:45:12;;;;;;;4.30;2.07;;;;;;;21.09;60.27;98001.25;6230246;28;20694;-44
2023/06/23 12:48:14;;;;;;;2.07;1.47;;;;;;;20.91;62.58;97987.81;6230220;28;20247;-42
2023/06/23 12:51:17;;;;;;;2.53;1.83;;;;;;;20.76;61.74;97965.34;6229823;28;20583;-43
2023/06/23 12:54:19;;;;;;;2.63;2.10;;;;;;;20.66;63.01;97949.31;6229247;28;20208;-42
2023/06/23 12:57:21;;;;;;;5.47;2.70;;;;;;;20.41;64.55;97964.09;6229716;28;20243;-42
2023/06/23 13:00:24;;;;;;;4.63;2.43;;;;;;;20.20;66.73;97955.53;6227502;28;20238;-42
2023/06/23 13:03:26;;;;;;;7.43;2.23;;;;;;;20.03;68.84;97941.75;6226459;28;20228;-43
2023/06/23 13:06:28;;;;;;;3.67;2.07;;;;;;;19.75;72.95;97936.28;6230748;28;20239;-42
2023/06/23 13:09:31;;;;;;;3.50;2.70;;;;;;;19.46;74.71;97927.53;6229777;28;20239;-43
2023/06/23 13:12:36;;;;;;;3.30;2.73;;;;;;;18.96;74.53;97892.03;6229185;28;20289;-42
2023/06/23 13:15:39;;;;;;;3.67;3.30;;;;;;;18.82;74.59;97913.56;6227723;28;20760;-42
2023/06/23 13:18:41;;;;;;;3.43;2.87;;;;;;;18.57;78.16;97936.22;6229580;28;20231;-41
2023/06/23 13:21:45;;;;;;;3.70;2.87;;;;;;;18.43;77.81;97971.16;6229289;28;20232;-41
2023/06/23 13:24:48;;;;;;;3.10;2.77;;;;;;;18.29;78.70;97970.22;6229529;28;20801;-42
2023/06/23 13:27:50;;;;;;;4.50;3.00;;;;;;;18.26;82.07;97976.97;6229527;28;20736;-41
2023/06/23 13:30:52;;;;;;;4.57;3.10;;;;;;;18.07;83.35;97980.66;6228533;28;20239;-42
2023/06/23 13:33:54;;;;;;;4.00;3.63;;;;;;;18.06;81.33;97985.25;6229629;28;20729;-42
2023/06/23 13:36:56;;;;;;;3.27;2.97;;;;;;;18.07;82.73;98005.72;6227312;28;20611;-41
2023/06/23 13:39:59;;;;;;;3.53;3.20;;;;;;;18.04;84.69;98017.91;6226417;28;20615;-41
2023/06/23 13:43:05;;;;;;;6.07;3.20;;;;;;;17.77;88.07;98022.94;6226726;28;20332;-41
2023/06/23 13:46:09;;;;;;;3.60;3.30;;;;;;;17.64;87.84;98018.97;6225494;28;20263;-41
2023/06/23 13:49:14;;;;;;;4.73;4.30;;;;;;;17.55;88.71;98012.56;6227358;28;20235;-41
2023/06/23 13:52:17;;;;;;;5.07;4.37;;;;;;;17.42;91.04;98034.69;6226527;28;20620;-41
2023/06/23 13:55:19;;;;;;;3.63;3.23;;;;;;;17.40;91.02;98045.75;6220217;28;20247;-41
2023/06/23 13:58:21;;;;;;;3.87;3.30;;;;;;;17.37;87.92;98040.13;6227525;28;20238;-41
2023/06/23 14:01:24;;;;;;;5.57;3.90;;;;;;;17.44;90.13;98051.41;6228026;28;20239;-41
2023/06/23 14:04:26;;;;;;;5.70;3.90;;;;;;;17.39;91.17;98038.75;6228933;28;20897;-41
2023/06/23 14:07:30;;;;;;;5.00;4.23;;;;;;;17.39;92.59;98024.47;6227339;28;20232;-42
2023/06/23 14:10:32;;;;;;;5.17;4.23;;;;;;;17.34;88.30;98035.25;6223519;28;20227;-41
2023/06/23 14:13:35;;;;;;;5.47;4.50;;;;;;;17.32;90.77;98040.94;6229606;28;20235;-41
2023/06/23 14:16:37;;;;;;;8.57;5.50;;;;;;;17.36;91.72;98060.06;6225584;28;20270;-41
2023/06/23 14:19:39;;;;;;;7.17;4.53;;;;;;;17.28;92.57;98051.44;6229179;28;20239;-42
2023/06/23 14:22:41;;;;;;;5.67;5.07;;;;;;;17.12;93.69;97998.75;6227777;28;20663;-42
2023/06/23 14:25:43;;;;;;;5.63;5.07;;;;;;;17.27;91.70;98005.97;6228360;28;20771;-41
2023/06/23 14:28:46;;;;;;;6.80;5.67;;;;;;;17.12;93.71;97981.81;6229386;28;20791;-41
2023/06/23 14:31:49;;;;;;;7.07;5.70;;;;;;;17.34;91.56;97981.41;6228863;28;20232;-41
2023/06/23 14:34:51;;;;;;;6.87;5.50;;;;;;;17.43;89.92;97971.66;6228256;28;20731;-41
2023/06/23 14:37:53;;;;;;;7.87;5.97;;;;;;;17.22;92.33;97963.72;6214313;28;20231;-41
2023/06/23 14:40:56;;;;;;;7.57;6.57;;;;;;;17.14;92.91;97969.69;6227359;28;20235;-41